createdAt,value
2018-05-27T00:02:16.383Z,11.20
2018-05-27T00:04:42.724Z,11.47
2018-05-27T00:07:09.050Z,10.97
2018-05-27T00:09:35.414Z,11.20
2018-05-27T00:12:01.730Z,10.83
2018-05-27T00:14:28.018Z,11.10
2018-05-27T00:16:55.038Z,15.53
2018-05-27T00:19:21.351Z,10.87
2018-05-27T00:21:47.626Z,10.90
2018-05-27T00:24:14.658Z,11.23
2018-05-27T00:26:41.006Z,11.03
2018-05-27T00:29:07.346Z,10.70
2018-05-27T00:31:33.617Z,11.33
2018-05-27T00:33:59.927Z,11.33
2018-05-27T00:36:26.973Z,13.47
2018-05-27T00:38:53.290Z,11.83
2018-05-27T00:41:19.591Z,12.07
2018-05-27T00:43:45.885Z,11.27
2018-05-27T00:46:12.165Z,11.67
2018-05-27T00:48:38.461Z,11.33
2018-05-27T00:51:04.809Z,11.93
2018-05-27T00:53:50.349Z,11.30
2018-05-27T00:56:16.633Z,11.30
2018-05-27T00:58:42.956Z,12.03
2018-05-27T01:01:10.036Z,10.80
2018-05-27T01:03:36.334Z,9.90
2018-05-27T01:06:02.646Z,11.87
2018-05-27T01:08:28.920Z,11.53
2018-05-27T01:10:55.972Z,11.20
2018-05-27T01:13:23.038Z,12.03
2018-05-27T01:15:50.062Z,10.73
2018-05-27T01:18:16.353Z,10.53
2018-05-27T01:20:42.619Z,10.50
2018-05-27T01:23:08.976Z,11.53
2018-05-27T01:25:36.057Z,10.83
2018-05-27T01:28:02.318Z,12.87
2018-05-27T01:30:28.637Z,6.33
2018-05-27T01:32:54.975Z,10.33
2018-05-27T01:35:21.322Z,10.40
2018-05-27T01:37:47.669Z,11.20
2018-05-27T01:40:13.956Z,10.43
2018-05-27T01:42:40.989Z,10.03
2018-05-27T01:45:07.238Z,11.50
2018-05-27T01:47:34.285Z,11.33
2018-05-27T01:50:01.349Z,12.20
2018-05-27T01:52:28.369Z,17.73
2018-05-27T01:54:54.670Z,11.03
2018-05-27T01:57:21.014Z,10.97
2018-05-27T01:59:47.350Z,11.10
2018-05-27T02:02:13.650Z,10.23
2018-05-27T02:04:40.732Z,11.33
2018-05-27T02:07:07.078Z,11.63
2018-05-27T02:09:33.425Z,11.60
2018-05-27T02:11:59.729Z,14.10
2018-05-27T02:14:26.044Z,12.63
2018-05-27T02:16:53.129Z,12.63
2018-05-27T02:19:19.376Z,12.97
2018-05-27T02:21:45.646Z,12.80
2018-05-27T02:24:11.901Z,14.47
2018-05-27T02:26:38.201Z,11.27
2018-05-27T02:29:04.497Z,13.77
2018-05-27T02:31:30.789Z,13.50
2018-05-27T02:33:57.106Z,13.97
2018-05-27T02:36:23.411Z,14.30
2018-05-27T02:38:49.709Z,15.67
2018-05-27T02:41:17.492Z,14.30
2018-05-27T02:43:44.533Z,13.93
2018-05-27T02:46:10.842Z,15.43
2018-05-27T02:48:37.189Z,13.90
2018-05-27T02:51:03.481Z,13.83
2018-05-27T02:53:29.771Z,13.27
2018-05-27T02:55:56.084Z,13.60
2018-05-27T02:58:22.378Z,14.43
2018-05-27T03:00:48.674Z,14.23
2018-05-27T03:03:14.985Z,13.47
2018-05-27T03:05:41.298Z,13.63
2018-05-27T03:08:07.935Z,13.33
2018-05-27T03:10:34.994Z,14.33
2018-05-27T03:13:01.337Z,13.87
2018-05-27T03:15:27.614Z,14.03
2018-05-27T03:17:53.853Z,14.57
2018-05-27T03:20:20.150Z,14.17
2018-05-27T03:22:46.456Z,12.83
2018-05-27T03:25:13.549Z,16.37
2018-05-27T03:27:39.841Z,15.27
2018-05-27T03:30:06.921Z,13.60
2018-05-27T03:32:33.174Z,14.37
2018-05-27T03:34:59.470Z,12.83
2018-05-27T03:37:26.495Z,14.53
2018-05-27T03:39:52.777Z,14.93
2018-05-27T03:42:19.077Z,14.13
2018-05-27T03:44:46.905Z,15.50
2018-05-27T03:47:13.239Z,16.27
2018-05-27T03:49:39.555Z,16.90
2018-05-27T03:52:06.623Z,16.90
2018-05-27T03:54:33.114Z,17.23
2018-05-27T03:56:59.387Z,15.37
2018-05-27T03:59:25.698Z,17.97
2018-05-27T04:01:52.743Z,14.97
2018-05-27T04:07:47.991Z,14.70
2018-05-27T04:10:14.253Z,14.90
2018-05-27T04:12:40.543Z,14.77
2018-05-27T04:15:07.572Z,14.30
2018-05-27T04:17:34.791Z,14.23
2018-05-27T04:20:01.102Z,14.83
2018-05-27T04:22:27.441Z,14.27
2018-05-27T04:24:53.688Z,14.80
2018-05-27T04:27:20.009Z,13.93
2018-05-27T04:29:46.293Z,13.90
2018-05-27T04:32:12.562Z,12.60
2018-05-27T04:34:39.584Z,13.27
2018-05-27T04:37:05.864Z,12.87
2018-05-27T04:39:32.163Z,13.97
2018-05-27T04:41:58.442Z,13.50
2018-05-27T04:44:24.728Z,13.20
2018-05-27T04:46:51.014Z,13.17
2018-05-27T04:49:17.316Z,13.70
2018-05-27T04:51:44.312Z,12.63
2018-05-27T04:54:10.570Z,13.80
2018-05-27T04:56:36.902Z,12.17
2018-05-27T04:59:03.307Z,13.00
2018-05-27T05:01:29.523Z,11.53
2018-05-27T05:03:56.547Z,12.60
2018-05-27T05:06:22.857Z,11.30
2018-05-27T05:08:49.192Z,11.57
2018-05-27T05:11:15.477Z,11.57
2018-05-27T05:13:41.763Z,10.93
2018-05-27T05:16:08.077Z,11.43
2018-05-27T05:18:34.387Z,11.27
2018-05-27T05:21:01.456Z,10.93
2018-05-27T05:23:28.521Z,10.10
2018-05-27T05:25:54.885Z,11.37
2018-05-27T05:28:21.189Z,10.13
2018-05-27T05:30:47.422Z,10.00
2018-05-27T05:33:14.481Z,11.50
2018-05-27T05:35:40.852Z,10.83
2018-05-27T05:38:07.190Z,10.27
2018-05-27T05:40:33.505Z,10.63
2018-05-27T05:42:59.816Z,10.17
2018-05-27T05:45:26.885Z,13.37
2018-05-27T05:47:53.220Z,10.33
2018-05-27T05:50:19.507Z,9.90
2018-05-27T05:52:45.817Z,11.03
2018-05-27T05:55:12.117Z,9.33
2018-05-27T05:57:39.186Z,9.93
2018-05-27T06:00:05.533Z,9.83
2018-05-27T06:02:31.822Z,9.67
2018-05-27T06:04:58.108Z,10.00
2018-05-27T06:07:24.433Z,9.87
2018-05-27T06:09:50.722Z,9.57
2018-05-27T06:12:17.120Z,10.07
2018-05-27T06:14:43.409Z,11.47
2018-05-27T06:17:10.401Z,9.53
2018-05-27T06:19:36.711Z,9.83
2018-05-27T06:22:03.019Z,10.13
2018-05-27T06:24:29.294Z,11.10
2018-05-27T06:26:56.314Z,11.73
2018-05-27T06:29:22.634Z,9.63
2018-05-27T06:31:48.935Z,10.88
2018-05-27T06:34:15.246Z,10.13
2018-05-27T06:36:42.314Z,10.07
2018-05-27T06:39:09.382Z,9.97
2018-05-27T06:41:35.640Z,13.17
2018-05-27T06:44:01.926Z,9.70
2018-05-27T06:46:29.005Z,10.70
2018-05-27T06:48:55.347Z,13.20
2018-05-27T06:51:21.706Z,8.70
2018-05-27T06:53:48.006Z,9.73
2018-05-27T06:56:14.361Z,8.77
2018-05-27T06:58:40.677Z,9.30
2018-05-27T07:01:06.929Z,8.53
2018-05-27T07:03:33.226Z,9.23
2018-05-27T07:05:59.541Z,9.10
2018-05-27T07:08:27.270Z,8.83
2018-05-27T07:10:53.693Z,8.67
2018-05-27T07:13:19.977Z,8.40
2018-05-27T07:15:46.227Z,8.90
2018-05-27T07:18:12.522Z,9.33
2018-05-27T07:20:38.842Z,10.17
2018-05-27T07:23:05.094Z,8.60
2018-05-27T07:25:31.358Z,8.43
2018-05-27T07:27:57.670Z,9.40
2018-05-27T07:30:23.968Z,8.37
2018-05-27T07:32:50.245Z,8.40
2018-05-27T07:35:16.488Z,8.70
2018-05-27T07:37:42.792Z,8.23
2018-05-27T07:40:09.092Z,8.43
2018-05-27T07:42:36.098Z,9.20
2018-05-27T07:45:02.367Z,8.10
2018-05-27T07:47:28.634Z,8.37
2018-05-27T07:49:55.670Z,9.50
2018-05-27T07:52:21.998Z,8.30
2018-05-27T07:54:48.308Z,8.13
2018-05-27T07:57:14.625Z,7.10
2018-05-27T07:59:40.902Z,8.23
2018-05-27T08:02:07.197Z,9.53
2018-05-27T08:04:33.457Z,7.87
2018-05-27T08:06:59.765Z,7.87
2018-05-27T08:09:26.093Z,8.37
2018-05-27T08:11:52.430Z,7.13
2018-05-27T08:14:18.734Z,8.03
2018-05-27T08:16:45.779Z,8.07
2018-05-27T08:19:12.037Z,7.77
2018-05-27T08:21:39.055Z,7.27
2018-05-27T08:24:05.354Z,6.97
2018-05-27T08:26:31.657Z,10.87
2018-05-27T08:28:58.710Z,7.20
2018-05-27T08:31:25.757Z,7.30
2018-05-27T08:33:52.026Z,7.03
2018-05-27T08:36:18.322Z,7.77
2018-05-27T08:38:44.636Z,7.57
2018-05-27T08:41:10.917Z,8.00
2018-05-27T08:43:37.973Z,7.47
2018-05-27T08:46:05.062Z,8.20
2018-05-27T08:48:31.350Z,8.07
2018-05-27T08:50:58.402Z,7.13
2018-05-27T08:53:25.452Z,7.80
2018-05-27T08:55:51.764Z,6.70
2018-05-27T08:58:18.062Z,6.97
2018-05-27T09:00:44.379Z,7.30
2018-05-27T09:03:11.425Z,7.00
2018-05-27T09:05:38.469Z,7.63
2018-05-27T09:08:05.481Z,7.17
2018-05-27T09:10:31.798Z,9.70
2018-05-27T09:12:58.790Z,7.13
2018-05-27T09:15:25.061Z,7.97
2018-05-27T09:17:52.048Z,7.43
2018-05-27T09:20:18.293Z,8.07
2018-05-27T09:22:44.593Z,10.37
2018-05-27T09:25:10.927Z,7.90
2018-05-27T09:27:37.960Z,7.40
2018-05-27T09:30:04.292Z,6.97
2018-05-27T09:32:30.573Z,7.43
2018-05-27T09:34:56.902Z,7.20
2018-05-27T09:37:23.188Z,7.20
2018-05-27T09:39:49.489Z,6.93
2018-05-27T09:42:16.503Z,6.93
2018-05-27T09:44:43.534Z,7.07
2018-05-27T09:47:09.828Z,6.47
2018-05-27T09:49:36.097Z,6.70
2018-05-27T09:52:02.406Z,6.70
2018-05-27T09:54:28.643Z,6.93
2018-05-27T09:56:54.945Z,7.20
2018-05-27T09:59:21.978Z,6.13
2018-05-27T10:01:49.005Z,8.17
2018-05-27T10:04:15.299Z,6.83
2018-05-27T10:06:41.615Z,6.70
2018-05-27T10:09:08.626Z,6.53
2018-05-27T10:11:34.962Z,6.23
2018-05-27T10:14:01.241Z,6.47
2018-05-27T10:16:28.241Z,6.03
2018-05-27T10:18:54.564Z,7.20
2018-05-27T10:21:20.897Z,6.27
2018-05-27T10:23:47.181Z,6.63
2018-05-27T10:26:13.425Z,6.10
2018-05-27T10:28:39.677Z,6.20
2018-05-27T10:31:06.729Z,6.67
2018-05-27T10:33:33.769Z,6.47
2018-05-27T10:36:00.043Z,6.37
2018-05-27T10:38:26.310Z,6.10
2018-05-27T10:40:52.594Z,6.10
2018-05-27T10:43:19.620Z,6.13
2018-05-27T10:45:45.892Z,6.73
2018-05-27T10:48:12.186Z,4.00
2018-05-27T10:50:38.435Z,3.60
2018-05-27T10:53:05.430Z,3.83
2018-05-27T10:55:31.743Z,4.35
2018-05-27T10:57:57.997Z,4.07
2018-05-27T11:00:24.237Z,3.72
2018-05-27T11:02:50.514Z,3.58
2018-05-27T11:05:16.776Z,3.70
2018-05-27T11:07:43.802Z,4.40
2018-05-27T11:10:10.090Z,4.07
2018-05-27T11:12:36.413Z,4.32
2018-05-27T11:15:02.666Z,4.93
2018-05-27T11:17:28.985Z,4.37
2018-05-27T11:19:55.932Z,3.90
2018-05-27T11:22:22.185Z,4.30
2018-05-27T11:24:48.481Z,3.55
2018-05-27T11:27:15.482Z,3.50
2018-05-27T11:29:41.805Z,3.08
2018-05-27T11:32:08.147Z,3.28
2018-05-27T11:34:34.431Z,3.37
2018-05-27T11:37:00.819Z,3.33
2018-05-27T11:39:27.079Z,4.00
2018-05-27T11:41:53.326Z,3.33
2018-05-27T11:44:19.642Z,3.33
2018-05-27T11:49:18.890Z,3.62
2018-05-27T11:51:45.157Z,3.70
2018-05-27T11:54:12.174Z,4.32
2018-05-27T11:56:38.433Z,3.72
2018-05-27T11:59:05.518Z,4.00
2018-05-27T12:01:31.813Z,3.70
2018-05-27T12:03:58.053Z,3.45
2018-05-27T12:06:24.350Z,3.75
2018-05-27T12:08:50.653Z,3.80
2018-05-27T12:11:16.970Z,4.53
2018-05-27T12:13:43.975Z,3.30
2018-05-27T12:16:10.286Z,3.42
2018-05-27T12:18:36.585Z,3.83
2018-05-27T12:21:02.848Z,3.75
2018-05-27T12:23:29.125Z,3.78
2018-05-27T12:25:58.187Z,5.05
2018-05-27T12:28:25.279Z,3.78
2018-05-27T12:30:51.597Z,3.47
2018-05-27T12:33:17.852Z,3.90
2018-05-27T12:35:44.125Z,4.72
2018-05-27T12:38:11.185Z,3.97
2018-05-27T12:40:38.202Z,4.00
2018-05-27T12:43:04.482Z,4.30
2018-05-27T12:45:30.745Z,4.47
2018-05-27T12:47:57.038Z,3.83
2018-05-27T12:50:24.091Z,4.20
2018-05-27T12:52:51.140Z,3.80
2018-05-27T12:55:17.374Z,4.03
2018-05-27T12:57:43.633Z,3.90
2018-05-27T13:00:09.953Z,4.23
2018-05-27T13:02:36.939Z,3.70
2018-05-27T13:05:03.237Z,4.30
2018-05-27T13:07:30.225Z,3.90
2018-05-27T13:09:56.477Z,5.13
2018-05-27T13:12:22.751Z,4.20
2018-05-27T13:14:49.013Z,3.90
2018-05-27T13:17:16.042Z,3.70
2018-05-27T13:19:42.751Z,4.00
2018-05-27T13:22:09.127Z,8.75
2018-05-27T13:24:36.149Z,4.22
2018-05-27T13:27:07.100Z,3.90
2018-05-27T13:29:34.224Z,4.60
2018-05-27T13:32:00.459Z,4.20
2018-05-27T13:34:26.769Z,4.07
2018-05-27T13:36:53.031Z,3.77
2018-05-27T13:39:19.365Z,4.43
2018-05-27T13:41:45.661Z,4.37
2018-05-27T13:44:17.682Z,3.90
2018-05-27T13:46:49.461Z,4.23
2018-05-27T13:49:16.670Z,3.77
2018-05-27T13:51:43.274Z,3.87
2018-05-27T13:54:11.039Z,3.90
2018-05-27T13:56:37.397Z,4.03
2018-05-27T13:59:04.556Z,4.17
2018-05-27T14:01:31.018Z,4.43
2018-05-27T14:03:57.293Z,5.07
2018-05-27T14:06:24.931Z,6.13
2018-05-27T14:08:51.266Z,4.20
2018-05-27T14:11:20.160Z,5.07
2018-05-27T14:13:49.254Z,5.27
2018-05-27T14:16:15.691Z,4.63
2018-05-27T14:18:42.441Z,4.37
2018-05-27T14:21:10.422Z,4.40
2018-05-27T14:23:38.616Z,4.90
2018-05-27T14:26:05.254Z,5.23
2018-05-27T14:28:32.005Z,5.13
2018-05-27T14:31:00.167Z,4.87
2018-05-27T14:33:28.858Z,6.20
2018-05-27T14:35:58.121Z,5.23
2018-05-27T14:38:27.053Z,5.10
2018-05-27T14:40:53.386Z,4.67
2018-05-27T14:43:19.650Z,5.00
2018-05-27T14:45:45.938Z,8.47
2018-05-27T14:48:12.232Z,5.53
2018-05-27T14:50:38.519Z,5.50
2018-05-27T14:53:04.785Z,4.60
2018-05-27T14:55:31.085Z,6.23
2018-05-27T14:57:57.401Z,7.10
2018-05-27T15:00:23.672Z,5.30
2018-05-27T15:02:49.997Z,5.33
2018-05-27T15:05:16.318Z,6.00
2018-05-27T15:07:42.604Z,5.30
2018-05-27T15:10:08.914Z,5.90
2018-05-27T15:12:35.177Z,6.47
2018-05-27T15:15:01.470Z,5.40
2018-05-27T15:17:28.300Z,7.33
2018-05-27T15:19:55.285Z,9.93
2018-05-27T15:22:21.566Z,5.70
2018-05-27T15:24:47.797Z,5.80
2018-05-27T15:27:14.058Z,6.97
2018-05-27T15:29:41.078Z,7.10
2018-05-27T15:32:07.365Z,5.97
2018-05-27T15:34:34.405Z,9.33
2018-05-27T15:37:00.696Z,6.37
2018-05-27T15:39:26.994Z,7.27
2018-05-27T15:41:53.301Z,6.73
2018-05-27T15:44:20.389Z,5.60
2018-05-27T15:46:46.670Z,5.80
2018-05-27T15:49:12.921Z,6.33
2018-05-27T15:51:40.732Z,7.50
2018-05-27T15:54:06.978Z,6.53
2018-05-27T15:56:33.274Z,6.00
2018-05-27T15:59:00.295Z,7.03
2018-05-27T16:01:26.553Z,8.80
2018-05-27T16:03:53.582Z,6.17
2018-05-27T16:06:19.851Z,8.50
2018-05-27T16:08:46.861Z,6.50
2018-05-27T16:11:13.098Z,7.03
2018-05-27T16:13:39.383Z,6.97
2018-05-27T16:16:09.730Z,5.30
2018-05-27T16:18:36.930Z,11.87
2018-05-27T16:21:03.235Z,10.40
2018-05-27T16:23:29.547Z,10.60
2018-05-27T16:25:55.848Z,5.97
2018-05-27T16:28:22.933Z,7.00
2018-05-27T16:30:49.170Z,10.13
2018-05-27T16:33:15.425Z,5.80
2018-05-27T16:35:41.714Z,5.83
2018-05-27T16:38:08.706Z,5.53
2018-05-27T16:40:35.066Z,6.63
2018-05-27T16:43:01.358Z,6.50
2018-05-27T16:45:27.734Z,7.87
2018-05-27T16:47:54.010Z,5.87
2018-05-27T16:50:20.289Z,7.17
2018-05-27T16:52:46.671Z,5.60
2018-05-27T16:55:14.095Z,6.50
2018-05-27T16:57:41.890Z,5.83
2018-05-27T17:00:08.910Z,6.20
2018-05-27T17:02:35.182Z,5.57
2018-05-27T17:05:01.512Z,6.73
2018-05-27T17:07:27.849Z,5.07
2018-05-27T17:09:56.153Z,5.90
2018-05-27T17:12:22.453Z,4.90
2018-05-27T17:14:48.862Z,5.30
2018-05-27T17:17:15.141Z,5.33
2018-05-27T17:19:41.393Z,6.13
2018-05-27T17:22:07.689Z,7.43
2018-05-27T17:24:34.057Z,10.27
2018-05-27T17:27:00.351Z,5.80
2018-05-27T17:29:26.738Z,5.40
2018-05-27T17:31:53.827Z,7.80
2018-05-27T17:34:20.877Z,5.83
2018-05-27T17:36:47.878Z,5.43
2018-05-27T17:39:14.149Z,5.07
2018-05-27T17:41:41.738Z,6.23
2018-05-27T17:44:08.063Z,5.70
2018-05-27T17:46:35.169Z,6.10
2018-05-27T17:49:01.461Z,5.67
2018-05-27T17:51:27.768Z,5.73
2018-05-27T17:53:54.085Z,6.40
2018-05-27T17:56:20.376Z,6.13
2018-05-27T17:58:46.632Z,6.30
2018-05-27T18:01:12.895Z,5.77
2018-05-27T18:03:39.238Z,6.40
2018-05-27T18:06:06.649Z,6.73
2018-05-27T18:08:32.965Z,6.13
2018-05-27T18:11:00.365Z,6.37
2018-05-27T18:13:26.972Z,6.30
2018-05-27T18:15:54.029Z,7.37
2018-05-27T18:18:21.026Z,6.17
2018-05-27T18:20:47.322Z,6.53
2018-05-27T18:23:19.644Z,8.23
2018-05-27T18:25:45.912Z,6.07
2018-05-27T18:28:12.975Z,8.27
2018-05-27T18:30:40.127Z,6.80
2018-05-27T18:33:07.444Z,6.17
2018-05-27T18:35:35.223Z,6.30
2018-05-27T18:38:01.473Z,7.53
2018-05-27T18:40:28.620Z,7.47
2018-05-27T18:42:54.928Z,7.53
2018-05-27T18:45:21.274Z,7.20
2018-05-27T18:47:47.604Z,7.60
2018-05-27T18:50:13.928Z,7.77
2018-05-27T18:52:40.258Z,7.57
2018-05-27T18:55:06.522Z,7.50
2018-05-27T18:57:32.817Z,7.00
2018-05-27T18:59:59.126Z,7.73
2018-05-27T19:02:26.150Z,7.53
2018-05-27T19:04:52.945Z,8.13
2018-05-27T19:07:19.505Z,7.60
2018-05-27T19:09:49.698Z,8.80
2018-05-27T19:12:16.046Z,7.60
2018-05-27T19:14:48.416Z,7.90
2018-05-27T19:17:15.182Z,7.47
2018-05-27T19:19:42.678Z,7.53
2018-05-27T19:22:10.505Z,8.00
2018-05-27T19:24:37.147Z,7.53
2018-05-27T19:27:03.488Z,7.87
2018-05-27T19:29:29.767Z,7.93
2018-05-27T19:31:56.053Z,8.23
2018-05-27T19:34:23.099Z,8.23
2018-05-27T19:36:51.851Z,9.13
2018-05-27T19:39:20.007Z,8.63
2018-05-27T19:41:47.086Z,9.30
2018-05-27T19:44:17.784Z,7.97
2018-05-27T19:46:49.924Z,8.90
2018-05-27T19:49:21.092Z,8.67
2018-05-27T19:51:50.933Z,8.67
2018-05-27T19:54:18.476Z,8.00
2018-05-27T19:56:45.310Z,9.10
2018-05-27T19:59:15.215Z,8.73
2018-05-27T20:01:42.244Z,9.03
2018-05-27T20:04:10.252Z,9.03
2018-05-27T20:06:39.074Z,8.37
2018-05-27T20:09:07.161Z,8.37
2018-05-27T20:11:33.558Z,7.90
2018-05-27T20:14:01.203Z,8.07
2018-05-27T20:16:27.654Z,7.97
2018-05-27T20:18:55.591Z,8.20
2018-05-27T20:21:21.888Z,7.50
2018-05-27T20:23:48.857Z,9.30
2018-05-27T20:26:15.176Z,7.70
2018-05-27T20:28:41.490Z,7.87
2018-05-27T20:31:07.757Z,8.53
2018-05-27T20:33:34.069Z,7.93
2018-05-27T20:36:01.160Z,7.50
2018-05-27T20:38:27.432Z,8.27
2018-05-27T20:40:53.741Z,7.53
2018-05-27T20:43:20.021Z,7.60
2018-05-27T20:45:47.056Z,7.50
2018-05-27T20:48:13.397Z,9.73
2018-05-27T20:50:40.441Z,7.33
2018-05-27T20:53:06.707Z,8.20
2018-05-27T20:55:32.993Z,6.20
2018-05-27T20:57:59.328Z,5.80
2018-05-27T21:00:25.590Z,5.40
2018-05-27T21:02:52.609Z,5.60
2018-05-27T21:05:25.461Z,6.47
2018-05-27T21:07:51.913Z,5.13
2018-05-27T21:10:18.231Z,4.57
2018-05-27T21:12:44.460Z,4.93
2018-05-27T21:15:11.475Z,7.50
2018-05-27T21:17:39.689Z,7.17
2018-05-27T21:20:10.378Z,5.50
2018-05-27T21:22:37.893Z,7.07
2018-05-27T21:25:04.225Z,5.27
2018-05-27T21:27:33.158Z,6.77
2018-05-27T21:30:00.167Z,5.60
2018-05-27T21:32:27.638Z,5.03
2018-05-27T21:34:56.763Z,8.83
2018-05-27T21:37:24.469Z,4.90
2018-05-27T21:39:51.031Z,3.57
2018-05-27T21:42:20.946Z,4.63
2018-05-27T21:44:49.127Z,5.50
2018-05-27T21:47:15.952Z,5.10
2018-05-27T21:49:42.515Z,6.40
2018-05-27T21:52:10.119Z,4.87
2018-05-27T21:54:36.980Z,4.97
2018-05-27T21:57:03.345Z,6.10
2018-05-27T21:59:29.669Z,3.60
2018-05-27T22:01:56.053Z,3.77
2018-05-27T22:04:22.349Z,5.67
2018-05-27T22:06:49.960Z,3.93
2018-05-27T22:09:16.987Z,3.43
2018-05-27T22:11:43.266Z,6.87
2018-05-27T22:14:09.501Z,3.07
2018-05-27T22:16:35.788Z,4.87
2018-05-27T22:19:02.078Z,4.93
2018-05-27T22:21:28.412Z,4.40
2018-05-27T22:23:54.656Z,5.30
2018-05-27T22:26:20.945Z,4.37
2018-05-27T22:28:48.009Z,7.10
2018-05-27T22:31:15.058Z,4.83
2018-05-27T22:33:42.068Z,6.37
2018-05-27T22:36:08.440Z,3.93
2018-05-27T22:38:35.555Z,5.07
2018-05-27T22:41:01.869Z,4.33
2018-05-27T22:43:28.141Z,3.60
2018-05-27T22:45:54.457Z,8.27
2018-05-27T22:48:20.755Z,7.37
2018-05-27T22:50:47.804Z,4.87
2018-05-27T22:53:14.816Z,5.43
2018-05-27T22:55:41.124Z,4.20
2018-05-27T22:58:07.440Z,4.70
2018-05-27T23:00:33.741Z,4.87
2018-05-27T23:03:00.109Z,9.73
2018-05-27T23:05:26.475Z,7.10
2018-05-27T23:07:52.806Z,9.03
2018-05-27T23:10:19.104Z,6.27
2018-05-27T23:12:46.126Z,5.97
2018-05-27T23:15:12.433Z,5.63
2018-05-27T23:17:38.720Z,6.83
2018-05-27T23:20:05.766Z,7.37
2018-05-27T23:22:32.034Z,6.30
2018-05-27T23:24:58.310Z,7.60
2018-05-27T23:27:24.616Z,7.13
2018-05-27T23:29:50.902Z,5.70
2018-05-27T23:32:17.209Z,5.57
2018-05-27T23:34:43.489Z,8.17
2018-05-27T23:37:10.505Z,7.00
2018-05-27T23:39:36.769Z,6.37
2018-05-27T23:42:03.046Z,10.33
2018-05-27T23:44:29.326Z,8.63
2018-05-27T23:46:55.625Z,9.40
2018-05-27T23:49:21.881Z,7.53
2018-05-27T23:51:48.221Z,6.67
2018-05-27T23:54:14.524Z,5.20
2018-05-27T23:56:40.801Z,7.53
2018-05-27T23:59:07.064Z,6.90
